Time;durP1;ratioP1;P1;durP2;ratioP2;P2;SDS_P1;SDS_P2;PMS_P1;PMS_P2;Temp;Humidity;BMP_temperature;BMP_pressure;BME280_temperature;BME280_humidity;BME280_pressure;Samples;Min_cycle;Max_cycle;Signal;HPM_P1;HPM_P2
2023/10/07 12:03:54;;;;;;;21.27;5.00;;;;;;;;;;5107818;27;20437;-82
2023/10/07 12:06:20;;;;;;;19.80;5.68;;;;;;;;;;5077475;28;20083;-84
2023/10/07 12:08:47;;;;;;;19.15;5.15;;;;;;;;;;5076129;28;20791;-84
2023/10/07 12:11:13;;;;;;;17.00;5.40;;;;;;;;;;5071349;28;20052;-83
2023/10/07 12:13:40;;;;;;;25.30;6.43;;;;;;;;;;5073567;28;20093;-84
2023/10/07 12:16:06;;;;;;;18.38;4.95;;;;;;;;;;5104845;28;20044;-83
2023/10/07 12:18:33;;;;;;;21.00;5.68;;;;;;;;;;5088836;28;20067;-84
2023/10/07 12:21:01;;;;;;;25.05;5.10;;;;;;;;;;5090969;28;20395;-83
2023/10/07 12:23:27;;;;;;;16.42;5.15;;;;;;;;;;5087954;28;20067;-83
2023/10/07 12:25:54;;;;;;;19.05;5.43;;;;;;;;;;5071493;28;20055;-84
2023/10/07 12:28:20;;;;;;;26.08;7.28;;;;;;;;;;5085534;28;20028;-83
2023/10/07 12:30:49;;;;;;;18.23;5.70;;;;;;;;;;5074931;28;21301;-84
2023/10/07 12:33:16;;;;;;;22.45;6.43;;;;;;;;;;5068420;28;20055;-84
2023/10/07 12:35:43;;;;;;;18.65;4.82;;;;;;;;;;5103541;28;20036;-84
2023/10/07 12:38:09;;;;;;;24.60;5.97;;;;;;;;;;5068790;28;20075;-83
2023/10/07 12:40:39;;;;;;;17.63;4.60;;;;;;;;;;5084223;28;20086;-83
2023/10/07 12:43:07;;;;;;;18.23;5.55;;;;;;;;;;5101623;28;20462;-84
2023/10/07 12:45:33;;;;;;;17.70;4.88;;;;;;;;;;5085821;28;20047;-83
2023/10/07 12:48:03;;;;;;;18.58;4.85;;;;;;;;;;5090349;28;20127;-84
2023/10/07 12:50:30;;;;;;;14.70;5.40;;;;;;;;;;5099528;28;20036;-83
2023/10/07 12:53:04;;;;;;;21.40;5.18;;;;;;;;;;5090570;28;20052;-83
2023/10/07 12:55:31;;;;;;;20.15;5.43;;;;;;;;;;5069884;28;20087;-83
2023/10/07 12:57:58;;;;;;;13.75;4.05;;;;;;;;;;5080973;28;20045;-84
2023/10/07 13:00:33;;;;;;;17.67;5.22;;;;;;;;;;5091640;28;20123;-83
2023/10/07 13:03:04;;;;;;;18.67;5.53;;;;;;;;;;5068379;28;20060;-83
2023/10/07 13:05:33;;;;;;;15.45;5.20;;;;;;;;;;5073337;28;20131;-84
2023/10/07 13:07:59;;;;;;;23.02;5.60;;;;;;;;;;5071839;28;20036;-83
2023/10/07 13:10:26;;;;;;;15.55;4.93;;;;;;;;;;5086652;28;20095;-83
2023/10/07 13:12:57;;;;;;;17.05;6.28;;;;;;;;;;5087806;28;20060;-84
2023/10/07 13:15:37;;;;;;;24.30;6.38;;;;;;;;;;5065203;28;20052;-83
2023/10/07 13:18:04;;;;;;;21.17;5.30;;;;;;;;;;5065410;28;20091;-84
2023/10/07 13:20:33;;;;;;;20.88;5.82;;;;;;;;;;5056992;28;20094;-83
2023/10/07 13:23:05;;;;;;;20.75;5.82;;;;;;;;;;5085138;28;20052;-84
2023/10/07 13:25:33;;;;;;;16.05;4.80;;;;;;;;;;5070425;28;20041;-83
2023/10/07 13:28:00;;;;;;;17.00;5.30;;;;;;;;;;5075728;28;20040;-84
2023/10/07 13:30:27;;;;;;;17.58;5.00;;;;;;;;;;5070475;28;20044;-83
2023/10/07 13:32:54;;;;;;;14.90;5.20;;;;;;;;;;5080843;28;20102;-83
2023/10/07 13:35:21;;;;;;;19.73;5.53;;;;;;;;;;5054162;28;20055;-84
2023/10/07 13:37:52;;;;;;;22.92;5.05;;;;;;;;;;5069035;28;20048;-83
2023/10/07 13:40:19;;;;;;;18.13;5.35;;;;;;;;;;5090508;28;20044;-83
2023/10/07 13:42:49;;;;;;;22.60;5.88;;;;;;;;;;5071899;28;20044;-84
2023/10/07 13:45:23;;;;;;;18.67;6.22;;;;;;;;;;5058459;28;20051;-82
2023/10/07 13:47:49;;;;;;;19.95;5.95;;;;;;;;;;5063813;28;20032;-84
2023/10/07 13:50:17;;;;;;;20.85;5.68;;;;;;;;;;5088105;28;20029;-83
2023/10/07 13:52:50;;;;;;;19.77;5.47;;;;;;;;;;5072896;28;20075;-84
2023/10/07 13:55:33;;;;;;;16.65;5.13;;;17.80;99.90;;;;;;5056265;28;20533;-83
2023/10/07 13:58:00;;;;;;;15.90;4.83;;;;;;;;;;5068113;28;20044;-83
2023/10/07 14:01:08;;;;;;;20.05;5.85;;;;;;;;;;5071459;28;20040;-83
2023/10/07 14:03:20;;;;;;;21.88;5.65;;;;;;;;;;5069718;28;20102;-83
2023/10/07 14:05:58;;;;;;;24.30;5.32;;;;;;;;;;5058291;28;20106;-83
2023/10/07 14:08:36;;;;;;;15.98;5.35;;;;;;;;;;5072686;28;20047;-84
2023/10/07 14:11:02;;;;;;;19.48;4.95;;;;;;;;;;5053478;28;20526;-83
2023/10/07 14:13:32;;;;;;;21.67;5.78;;;;;;;;;;5091116;28;20036;-84
2023/10/07 14:16:01;;;;;;;23.55;7.38;;;;;;;;;;5069289;28;20044;-84
2023/10/07 14:18:28;;;;;;;20.58;5.35;;;;;;;;;;5068696;28;20027;-83
2023/10/07 14:20:55;;;;;;;24.90;7.32;;;;;;;;;;5088152;28;20048;-83
2023/10/07 14:23:22;;;;;;;20.15;5.50;;;;;;;;;;5072283;28;20067;-84
2023/10/07 14:25:51;;;;;;;18.77;5.53;;;;;;;;;;5068820;28;20544;-83
2023/10/07 14:28:20;;;;;;;20.70;4.97;;;;;;;;;;5084306;28;20044;-82
2023/10/07 14:30:49;;;;;;;18.48;5.70;;;;;;;;;;5054444;28;20043;-84
2023/10/07 14:33:16;;;;;;;13.07;4.13;;;;;;;;;;5071063;28;20048;-84
2023/10/07 14:35:44;;;;;;;16.42;5.22;;;;;;;;;;5073170;28;20218;-84
2023/10/07 14:38:11;;;;;;;15.95;5.63;;;;;;;;;;5060085;28;20040;-83
2023/10/07 14:40:37;;;;;;;22.58;5.63;;;;;;;;;;5076896;28;20123;-83
2023/10/07 14:43:04;;;;;;;23.38;5.75;;;;;;;;;;5075958;28;20051;-83
2023/10/07 14:45:33;;;;;;;18.70;5.45;;;;;;;;;;5076328;28;20093;-83
2023/10/07 14:48:00;;;;;;;20.80;6.15;;;;;;;;;;5062901;28;20040;-84
2023/10/07 14:50:27;;;;;;;16.20;5.35;;;;;;;;;;5089408;28;20100;-83
2023/10/07 14:52:53;;;;;;;18.38;5.25;;;;;;;;;;5050431;28;20053;-83
2023/10/07 14:55:22;;;;;;;17.70;5.43;;;;;;;;;;5055051;28;20056;-83
2023/10/07 14:57:48;;;;;;;21.88;6.47;;;;;;;;;;5049846;28;20029;-84
2023/10/07 15:00:16;;;;;;;15.80;5.78;;;;;;;;;;5053092;28;20053;-84
2023/10/07 15:02:46;;;;;;;18.92;5.45;;;;;;;;;;5066652;28;20045;-84
2023/10/07 15:05:13;;;;;;;16.20;5.18;;;;;;;;;;5061917;28;20067;-83
2023/10/07 15:07:39;;;;;;;17.00;5.30;;;;;;;;;;5067171;28;20033;-83
2023/10/07 15:10:07;;;;;;;16.58;5.60;;;;;;;;;;5054826;28;20094;-83
2023/10/07 15:12:33;;;;;;;17.25;5.47;;;;;;;;;;5070143;28;20135;-83
2023/10/07 15:14:59;;;;;;;19.88;6.47;;;;;;;;;;5053400;28;20108;-84
2023/10/07 15:17:25;;;;;;;20.67;5.47;;;;;;;;;;5051025;28;20391;-83
2023/10/07 15:19:51;;;;;;;20.67;5.78;;;;;;;;;;5084488;28;20044;-84
2023/10/07 15:22:21;;;;;;;23.23;6.30;;;;;;;;;;5069140;28;20071;-84
2023/10/07 15:24:47;;;;;;;19.13;6.05;;;;;;;;;;5069060;28;20040;-84
2023/10/07 15:27:13;;;;;;;19.15;6.03;;;;;;;;;;5051081;28;20036;-83
2023/10/07 15:29:39;;;;;;;20.35;6.32;;;;;;;;;;5066363;28;20774;-83
2023/10/07 15:32:05;;;;;;;21.13;6.40;;;;;;;;;;5051650;28;20074;-83
2023/10/07 15:34:31;;;;;;;17.13;5.68;;;;;;;;;;5066093;28;20045;-83
2023/10/07 15:36:57;;;;;;;16.77;5.55;;;;;;;;;;5052709;28;20060;-83
2023/10/07 15:39:24;;;;;;;18.65;5.75;;;;;;;;;;5083062;28;20040;-84
2023/10/07 15:41:51;;;;;;;17.38;5.75;;;;;;;;;;5052724;28;20386;-84
2023/10/07 15:44:18;;;;;;;16.65;5.68;;;;;;;;;;5054246;28;20044;-82
2023/10/07 15:46:44;;;;;;;19.13;5.72;;;;;;;;;;5072227;28;20046;-83
2023/10/07 15:49:10;;;;;;;20.42;5.10;;;;;;;;;;5068197;28;20051;-83
2023/10/07 15:51:40;;;;;;;18.20;5.75;;;;;;;;;;5052908;28;20044;-83
2023/10/07 15:54:09;;;;;;;15.27;5.05;;;;;;;;;;5067176;28;20036;-82
2023/10/07 15:56:41;;;;;;;19.60;5.95;;;;;;;;;;5068022;28;20186;-84
2023/10/07 15:59:11;;;;;;;18.50;5.72;;;;;;;;;;5048015;28;20067;-84
2023/10/07 16:01:43;;;;;;;21.35;7.43;;;;;;;;;;5065369;28;20036;-82
2023/10/07 16:04:13;;;;;;;17.15;5.53;;;;;;;;;;5081536;28;20051;-84
2023/10/07 16:06:40;;;;;;;23.88;6.13;;;;;;;;;;5068233;28;20037;-83
2023/10/07 16:09:15;;;;;;;18.75;5.70;;;;;;;;;;5070923;28;20445;-84
2023/10/07 16:11:41;;;;;;;18.60;6.78;;;;;;;;;;5050348;28;20036;-84
2023/10/07 16:14:11;;;;;;;14.80;5.25;;;;;;;;;;5048643;28;20510;-83
2023/10/07 16:16:37;;;;;;;18.33;6.10;;;;;;;;;;5085743;28;20127;-83
2023/10/07 16:19:04;;;;;;;22.33;7.50;;;;;;;;;;5037962;28;20024;-82
2023/10/07 16:21:32;;;;;;;17.08;6.28;;;;;;;;;;5059561;28;20056;-83
2023/10/07 16:24:00;;;;;;;19.38;7.15;;;;;;;;;;5068894;28;20044;-83
2023/10/07 16:26:26;;;;;;;18.00;7.55;;;;;;;;;;5051647;28;20094;-83
2023/10/07 16:28:54;;;;;;;27.98;7.85;;;;;;;;;;5064537;28;20058;-84
2023/10/07 16:31:22;;;;;;;20.23;6.00;;;;;;;;;;5056076;28;20131;-83
2023/10/07 16:33:48;;;;;;;26.38;6.68;;;;;;;;;;5083405;28;20162;-82
2023/10/07 16:36:15;;;;;;;15.95;6.57;;;;;;;;;;5044943;28;20048;-84
2023/10/07 16:38:41;;;;;;;20.30;6.03;;;;;;;;;;5066762;28;20056;-82
2023/10/07 16:41:11;;;;;;;18.65;6.20;;;;;;;;;;5057016;28;20032;-83
2023/10/07 16:43:37;;;;;;;19.77;6.80;;;;;;;;;;5069644;28;20055;-84
2023/10/07 16:46:05;;;;;;;25.52;7.97;;;;;;;;;;5059173;28;20494;-83
2023/10/07 16:48:35;;;;;;;19.75;5.97;;;;;;;;;;5087762;28;20104;-83
2023/10/07 16:51:04;;;;;;;19.23;6.30;;;;;;;;;;5071779;28;20044;-83
2023/10/07 16:53:34;;;;;;;20.77;6.38;;;;;;;;;;5072059;28;20043;-83
2023/10/07 16:56:00;;;;;;;18.17;5.95;;;;;;;;;;5088948;28;20052;-83
2023/10/07 16:58:27;;;;;;;23.33;6.60;;;;;;;;;;5068483;28;20078;-85
2023/10/07 17:00:55;;;;;;;27.13;7.20;;;;;;;;;;5060171;28;20031;-83
2023/10/07 17:03:30;;;;;;;18.25;5.70;;;;;;;;;;5073679;28;20089;-82
2023/10/07 17:06:01;;;;;;;18.67;6.30;;;;;;;;;;5088907;28;20044;-83
2023/10/07 17:08:27;;;;;;;21.70;6.20;;;;;;;;;;5072957;28;20395;-83
2023/10/07 17:10:56;;;;;;;20.50;6.55;;;;;;;;;;5073551;28;20048;-83
2023/10/07 17:13:24;;;;;;;18.40;6.70;;;;;;;;;;5072826;28;20047;-83
2023/10/07 17:15:52;;;;;;;21.90;6.00;;;;;;;;;;5039883;28;20075;-83
2023/10/07 17:18:20;;;;;;;23.02;6.78;;;;;;;;;;5051804;28;20044;-83
2023/10/07 17:20:46;;;;;;;16.88;6.50;;;;;;;;;;5084499;28;20051;-84
2023/10/07 17:23:13;;;;;;;16.88;6.50;;;;;;;;;;5054163;28;20466;-83
2023/10/07 17:25:39;;;;;;;16.33;5.80;;;;;;;;;;5072598;28;20037;-84
2023/10/07 17:28:07;;;;;;;18.02;6.55;;;;;;;;;;5074238;28;20075;-83
2023/10/07 17:30:33;;;;;;;19.67;6.60;;;;;;;;;;5073186;28;20437;-83
2023/10/07 17:33:06;;;;;;;20.92;7.25;;;;;;;;;;5071970;28;20040;-83
2023/10/07 17:35:35;;;;;;;18.67;6.03;;;;;;;;;;5071921;28;20036;-83
2023/10/07 17:38:03;;;;;;;21.23;6.68;;;;;;;;;;5070273;28;20045;-83
2023/10/07 17:40:30;;;;;;;21.77;7.20;;;;;;;;;;5088842;28;20043;-84
2023/10/07 17:42:57;;;;;;;20.38;7.15;;;;;;;;;;5089020;28;20025;-84
2023/10/07 17:45:24;;;;;;;23.30;7.75;;;;;;;;;;5074825;28;20383;-83
2023/10/07 17:47:54;;;;;;;20.27;8.15;;;;;;;;;;5072974;28;20105;-83
2023/10/07 17:50:21;;;;;;;17.35;7.25;;;;;;;;;;5053906;28;20178;-83
2023/10/07 17:52:47;;;;;;;23.10;8.30;;;;;;;;;;5068028;28;20059;-83
2023/10/07 17:55:14;;;;;;;16.90;7.75;;;;;;;;;;5043878;28;20165;-84
2023/10/07 17:57:40;;;;;;;28.23;8.18;;;;;;;;;;5085357;28;20040;-84
2023/10/07 18:00:10;;;;;;;20.02;7.60;;;;;;;;;;5086827;28;20054;-85
2023/10/07 18:02:39;;;;;;;24.02;7.78;;;;;;;;;;5068363;28;20095;-85
2023/10/07 18:05:06;;;;;;;23.75;7.40;;;;;;;;;;5051079;28;20045;-84
2023/10/07 18:07:33;;;;;;;24.50;8.02;;;;;;;;;;5068556;28;20032;-83
2023/10/07 18:09:59;;;;;;;28.23;8.60;;;;;;;;;;5066347;28;20045;-85
2023/10/07 18:12:25;;;;;;;18.85;7.95;;;;;;;;;;5050427;28;20057;-84
2023/10/07 18:14:52;;;;;;;20.48;8.07;;;;;;;;;;5090279;28;20052;-85
2023/10/07 18:17:18;;;;;;;20.25;7.78;;;;;;;;;;5083964;28;20044;-84
2023/10/07 18:19:47;;;;;;;15.95;7.13;;;;;;;;;;5054481;28;20132;-84
2023/10/07 18:22:13;;;;;;;23.95;7.90;;;;;;;;;;5071825;28;20645;-85
2023/10/07 18:24:40;;;;;;;21.63;8.48;;;;;;;;;;5084249;28;20044;-84
2023/10/07 18:27:08;;;;;;;22.33;8.63;;;;;;;;;;5070191;28;20075;-84
2023/10/07 18:29:36;;;;;;;28.02;9.40;;;;;;;;;;5073023;28;20028;-83
2023/10/07 18:32:03;;;;;;;24.00;8.60;;;;;;;;;;5082336;28;20080;-83
2023/10/07 18:34:30;;;;;;;19.92;8.27;;;;;;;;;;5080133;28;20063;-83
2023/10/07 18:36:56;;;;;;;23.10;8.82;;;;;;;;;;5075743;28;20044;-83
2023/10/07 18:39:24;;;;;;;20.63;8.15;;;;;;;;;;5077925;28;20051;-83
2023/10/07 18:41:53;;;;;;;17.25;7.93;;;;;;;;;;5088536;28;20097;-84
2023/10/07 18:44:19;;;;;;;23.13;9.38;;;;;;;;;;5054251;28;20056;-85
2023/10/07 18:46:46;;;;;;;18.85;8.57;;;;;;;;;;5066061;28;20092;-84
2023/10/07 18:49:15;;;;;;;20.58;8.27;;;;;;;;;;5061778;28;20068;-85
2023/10/07 18:51:42;;;;;;;28.02;8.13;;;;;;;;;;5068771;28;20727;-85
2023/10/07 18:54:08;;;;;;;25.67;9.35;;;;;;;;;;5070540;28;20036;-84
2023/10/07 18:56:34;;;;;;;20.75;8.00;;;;;;;;;;5085564;28;20517;-83
2023/10/07 18:59:02;;;;;;;25.40;9.25;;;;;;;;;;5069903;28;20041;-84
2023/10/07 19:01:31;;;;;;;19.63;8.02;;;;;;;;;;5069834;28;20044;-85
2023/10/07 19:03:57;;;;;;;22.73;8.32;;;;;;;;;;5062105;28;20064;-85
2023/10/07 19:06:23;;;;;;;17.25;7.72;;;;;;;;;;5067445;28;20036;-84
2023/10/07 19:08:49;;;;;;;23.02;7.95;;;;;;;;;;5038162;28;20067;-85
2023/10/07 19:11:17;;;;;;;22.55;8.65;;;;;;;;;;5058570;28;20036;-84
2023/10/07 19:13:45;;;;;;;19.63;8.15;;;;;;;;;;5078938;28;20070;-84
2023/10/07 19:16:15;;;;;;;25.48;9.25;;;;;;;;;;5053190;28;20513;-84
2023/10/07 19:18:44;;;;;;;22.67;8.50;;;;;;;;;;5060539;28;20103;-85
2023/10/07 19:21:11;;;;;;;27.92;9.23;;;;;;;;;;5068285;28;20752;-84
2023/10/07 19:23:39;;;;;;;24.20;8.75;;;;;;;;;;5067305;28;20076;-83
2023/10/07 19:26:15;;;;;;;24.38;8.35;;;;;;;;;;5069243;28;20070;-85
2023/10/07 19:28:41;;;;;;;31.30;8.95;;;;;;;;;;5059941;28;20048;-85
2023/10/07 19:31:15;;;;;;;30.60;9.38;;;;;;;;;;5051225;28;20094;-84
2023/10/07 19:33:41;;;;;;;20.00;7.70;;;;;;;;;;5069422;28;20040;-84
2023/10/07 19:36:07;;;;;;;10.88;3.13;;;;;;;;;;5063957;28;20083;-85
2023/10/07 19:38:42;;;;;;;6.28;1.50;;;;;;;;;;5065149;28;20045;-85
2023/10/07 19:41:09;;;;;;;5.93;1.15;;;;;;;;;;5057299;28;20049;-85
2023/10/07 19:43:36;;;;;;;3.13;1.00;;;;;;;;;;5070871;28;20048;-83
2023/10/07 19:46:02;;;;;;;4.38;0.98;;;;;;;;;;5078101;28;20040;-84
2023/10/07 19:48:28;;;;;;;2.67;0.60;;;;;;;;;;5065658;28;20044;-84
2023/10/07 19:50:56;;;;;;;0.85;0.45;;;;;;;;;;5065647;28;20041;-84
2023/10/07 19:53:23;;;;;;;3.17;0.68;;;;;;;;;;5052323;28;20119;-84
2023/10/07 19:55:49;;;;;;;2.63;0.60;;;;;;;;;;5068569;28;20038;-84
2023/10/07 19:58:15;;;;;;;0.73;0.57;;;;;;;;;;5074781;28;20055;-84
2023/10/07 20:00:42;;;;;;;0.40;0.40;;;;;;;;;;5057808;28;20441;-84
2023/10/07 20:03:08;;;;;;;1.08;0.40;;;;;;;;;;5065091;28;20094;-84
2023/10/07 20:05:38;;;;;;;3.70;0.50;;;;;;;;;;5062960;28;20476;-84
2023/10/07 20:08:04;;;;;;;1.05;0.40;;;;;;;;;;5081699;28;20452;-85
2023/10/07 20:10:31;;;;;;;0.65;0.40;;;;;;;;;;5050729;28;20032;-85
2023/10/07 20:12:58;;;;;;;1.75;0.47;;;;;;;;;;5083219;28;20055;-84
2023/10/07 20:15:27;;;;;;;0.38;0.38;;;;;;;;;;5070034;28;20384;-85
2023/10/07 20:17:54;;;;;;;0.28;0.28;;;;;;;;;;5073070;28;20040;-85
2023/10/07 20:20:20;;;;;;;0.70;0.40;;;;;;;;;;5064723;28;20092;-85
2023/10/07 20:22:46;;;;;;;1.00;0.65;;;;;;;;;;5085788;28;20037;-85
2023/10/07 20:25:12;;;;;;;0.85;0.30;;;;;;;;;;5056915;28;20033;-84
2023/10/07 20:27:40;;;;;;;0.75;0.40;;;;;;;;;;5081051;28;20083;-85
2023/10/07 20:30:07;;;;;;;3.88;0.40;;;;;;;;;;5077198;28;20044;-85
2023/10/07 20:32:36;;;;;;;0.50;0.22;;;;;;;;;;5069963;28;20123;-85
2023/10/07 20:35:10;;;;;;;0.90;0.40;;;;;;;;;;5067230;28;20135;-85
2023/10/07 20:37:37;;;;;;;0.30;0.30;;;;;;;;;;5080725;28;20143;-84
2023/10/07 20:40:04;;;;;;;2.40;0.30;;;;;;;;;;5069431;28;20372;-84
2023/10/07 20:42:34;;;;;;;2.08;0.50;;;;;;;;;;5067085;28;20553;-85
2023/10/07 20:45:00;;;;;;;1.70;0.40;;;;;;;;;;5064714;28;20040;-84
2023/10/07 20:47:26;;;;;;;0.73;0.38;;;;;;;;;;5061624;28;20046;-85
2023/10/07 20:49:52;;;;;;;0.85;0.38;;;;;;;;;;5057490;28;20045;-84
2023/10/07 20:52:19;;;;;;;0.40;0.40;;;;;;;;;;5040383;28;20032;-84
2023/10/07 20:54:45;;;;;;;6.68;0.50;;;;;;;;;;5058986;28;20040;-84
2023/10/07 20:57:11;;;;;;;0.77;0.40;;;;;;;;;;5059562;28;20165;-85
2023/10/07 20:59:37;;;;;;;1.23;0.30;;;;;;;;;;5063650;28;20131;-84
2023/10/07 21:02:04;;;;;;;0.30;0.30;;;;;;;;;;5059777;28;20040;-84
2023/10/07 21:04:33;;;;;;;4.85;0.40;;;;;;;;;;5061712;28;20729;-85
2023/10/07 21:06:59;;;;;;;1.65;0.30;;;;;;;;;;5054891;28;20122;-85
2023/10/07 21:09:25;;;;;;;2.05;0.40;;;;;;;;;;5053016;28;20110;-84
2023/10/07 21:11:51;;;;;;;2.38;0.30;;;;;;;;;;5046299;28;20067;-85
2023/10/07 21:14:18;;;;;;;5.05;0.40;;;;;;;;;;5043733;28;20036;-85
2023/10/07 21:16:44;;;;;;;4.65;0.80;;;;;;;;;;5068586;28;20040;-85
2023/10/07 21:19:11;;;;;;;0.80;0.50;;;;;;;;;;5031397;28;20040;-85
2023/10/07 21:21:37;;;;;;;2.25;0.50;;;;;;;;;;5067772;28;20064;-86
2023/10/07 21:24:04;;;;;;;2.00;0.82;;;;;;;;;;5043227;28;20033;-84
2023/10/07 21:26:30;;;;;;;0.38;0.30;;;;;;;;;;5071606;28;20064;-84
2023/10/07 21:28:57;;;;;;;7.97;0.75;;;;;;;;;;5068622;28;20847;-84
2023/10/07 21:31:25;;;;;;;2.63;0.50;;;;;;;;;;5048084;28;20041;-84
2023/10/07 21:33:51;;;;;;;3.30;0.35;;;;;;;;;;5050968;28;20163;-84
2023/10/07 21:36:18;;;;;;;3.47;0.50;;;;;;;;;;5066728;28;20056;-84
2023/10/07 21:38:47;;;;;;;3.20;0.38;;;;;;;;;;5071787;28;20036;-85
2023/10/07 21:41:13;;;;;;;1.00;0.30;;;;;;;;;;5066111;28;20028;-85
2023/10/07 21:43:39;;;;;;;0.20;0.20;;;;;;;;;;5074389;28;20102;-85
2023/10/07 21:46:06;;;;;;;2.22;0.45;;;;;;;;;;5074591;28;20086;-85
2023/10/07 21:48:32;;;;;;;2.28;0.50;;;;;;;;;;5068142;28;20121;-84
2023/10/07 21:51:05;;;;;;;0.50;0.30;;;;;;;;;;5087202;28;20194;-85
2023/10/07 21:53:31;;;;;;;3.58;0.50;;;;;;;;;;5072450;28;20121;-84
2023/10/07 21:55:57;;;;;;;1.33;0.40;;;;;;;;;;5072888;28;20048;-84
2023/10/07 21:58:23;;;;;;;0.90;0.30;;;;;;;;;;5069025;28;20441;-84
2023/10/07 22:00:57;;;;;;;3.53;0.90;;;;;;;;;;5069839;28;20041;-85
2023/10/07 22:03:23;;;;;;;1.45;0.50;;;;;;;;;;5071279;28;20048;-85
2023/10/07 22:05:49;;;;;;;3.33;0.73;;;;;;;;;;5037288;28;20047;-84
2023/10/07 22:08:16;;;;;;;1.08;0.40;;;;;;;;;;5069141;28;20115;-84
2023/10/07 22:10:44;;;;;;;2.50;0.30;;;;;;;;;;5035654;28;20039;-84
2023/10/07 22:13:17;;;;;;;4.25;0.50;;;;;;;;;;5069294;28;20056;-85
2023/10/07 22:15:57;;;;;;;3.53;0.65;;;;;;;;;;5079190;28;20079;-85
2023/10/07 22:18:25;;;;;;;0.98;0.70;;;;;;;;;;5064967;28;20048;-84
2023/10/07 22:20:51;;;;;;;1.27;0.30;;;;;;;;;;5055244;28;20068;-84
2023/10/07 22:23:21;;;;;;;2.22;0.50;;;;;;;;;;5056115;28;20048;-84
2023/10/07 22:25:50;;;;;;;1.98;0.40;;;;;;;;;;5085892;28;20060;-84
2023/10/07 22:28:16;;;;;;;2.10;0.55;;;;;;;;;;5074705;28;20049;-84
2023/10/07 22:30:47;;;;;;;2.20;1.05;;;;;;;;;;5058843;28;20048;-85
2023/10/07 22:33:15;;;;;;;2.58;0.75;;;;;;;;;;5066019;28;20036;-84
2023/10/07 22:35:45;;;;;;;2.15;0.40;;;;;;;;;;5066534;28;20059;-85
2023/10/07 22:38:18;;;;;;;1.40;0.43;;;;;;;;;;5086949;28;20050;-84
2023/10/07 22:40:50;;;;;;;1.63;0.50;;;;;;;;;;5083514;28;20048;-84
2023/10/07 22:43:17;;;;;;;0.95;0.40;;;;;;;;;;5064347;28;20052;-84
2023/10/07 22:45:51;;;;;;;0.50;0.40;;;;;;;;;;5067337;28;20036;-84
2023/10/07 22:48:20;;;;;;;0.63;0.40;;;;;;;;;;5062447;28;20052;-84
2023/10/07 22:51:00;;;;;;;1.73;0.52;;;;;;;;;;5067659;28;21460;-85
2023/10/07 22:53:29;;;;;;;1.48;0.50;;;;;;;;;;5081813;28;20544;-85
2023/10/07 22:55:59;;;;;;;2.38;0.50;;;;;;;;;;5069627;28;20052;-85
2023/10/07 22:58:33;;;;;;;0.50;0.35;;;;;;;;;;5068989;28;20016;-85
2023/10/07 23:01:04;;;;;;;4.10;0.60;;;;;;;;;;5067589;28;20096;-85
2023/10/07 23:03:48;;;;;;;0.98;0.57;;;;;;;;;;5063352;28;20113;-84
2023/10/07 23:06:17;;;;;;;1.17;0.50;;;;;;;;;;5064660;28;20067;-84
2023/10/07 23:11:24;;;;;;;1.80;0.40;;;;;;;;;;5083709;28;20050;-84
2023/10/07 23:14:05;;;;;;;0.88;0.38;;;;;;;;;;5052663;28;20436;-84
2023/10/07 23:16:35;;;;;;;2.30;0.50;;;;;;;;;;5057804;28;20033;-85
2023/10/07 23:19:07;;;;;;;1.83;0.73;;;;;;;;;;5077111;28;20056;-85
2023/10/07 23:27:04;;;;;;;4.20;0.60;;;;;;;;;;5067057;28;20052;-84
2023/10/07 23:29:33;;;;;;;3.83;0.75;;;;;;;;;;5065818;28;20063;-84
2023/10/07 23:32:14;;;;;;;2.38;0.77;;;;;;;;;;5065876;28;20089;-85
2023/10/07 23:34:42;;;;;;;1.92;0.52;;;;;;;;;;5062837;28;20037;-85
2023/10/07 23:37:12;;;;;;;3.25;0.60;;;;;;;;;;5079711;28;20487;-85
2023/10/07 23:39:45;;;;;;;1.67;0.50;;;;;;;;;;5070363;28;20052;-84
2023/10/07 23:42:12;;;;;;;3.17;0.60;;;;;;;;;;5070345;28;20627;-84
2023/10/07 23:44:38;;;;;;;1.23;0.40;;;;;;;;;;5064198;28;20135;-85
2023/10/07 23:47:08;;;;;;;1.05;0.75;;;;;;;;;;5052083;28;20036;-84
2023/10/07 23:49:35;;;;;;;0.75;0.40;;;;;;;;;;5064315;28;20433;-85
2023/10/07 23:52:02;;;;;;;1.63;0.50;;;;;;;;;;5047181;28;20139;-84
2023/10/07 23:54:28;;;;;;;1.95;0.60;;;;;;;;;;5079729;28;20071;-85
2023/10/07 23:57:00;;;;;;;1.02;0.50;;;;;;;;;;5064770;28;20486;-84
2023/10/07 23:59:27;;;;;;;2.70;0.57;;;;;;;;;;5050618;28;20052;-84
